createdAt,value
2023-01-29T00:00:11.920Z,-0.52
2023-01-29T00:02:38.265Z,-0.49
2023-01-29T00:05:20.997Z,-0.45
2023-01-29T00:07:53.096Z,-0.51
2023-01-29T00:10:19.595Z,-0.52
2023-01-29T00:12:45.948Z,-0.52
2023-01-29T00:15:12.945Z,-0.47
2023-01-29T00:17:39.305Z,-0.45
2023-01-29T00:20:06.373Z,-0.42
2023-01-29T00:22:32.761Z,-0.39
2023-01-29T00:24:59.189Z,-0.46
2023-01-29T00:27:25.545Z,-0.49
2023-01-29T00:30:08.832Z,-0.42
2023-01-29T00:32:35.966Z,-0.44
2023-01-29T00:35:02.369Z,-0.39
2023-01-29T00:37:28.750Z,-0.43
2023-01-29T00:39:55.110Z,-0.42
2023-01-29T00:42:40.183Z,-0.39
2023-01-29T00:45:07.105Z,-0.41
2023-01-29T00:47:33.801Z,-0.43
2023-01-29T00:50:05.893Z,-0.52
2023-01-29T00:52:32.264Z,-0.48
2023-01-29T00:55:00.018Z,-0.54
2023-01-29T00:57:27.229Z,-0.49
2023-01-29T00:59:53.669Z,-0.53
2023-01-29T01:02:38.662Z,-0.54
2023-01-29T01:05:13.851Z,-0.59
2023-01-29T01:07:41.191Z,-0.59
2023-01-29T01:10:21.153Z,-0.59
2023-01-29T01:12:58.363Z,-0.55
2023-01-29T01:15:26.249Z,-0.57
2023-01-29T01:17:58.004Z,-0.57
2023-01-29T01:20:28.987Z,-0.59
2023-01-29T01:22:55.492Z,-0.55
2023-01-29T01:25:25.469Z,-0.54
2023-01-29T01:27:55.728Z,-0.55
2023-01-29T01:30:22.136Z,-0.60
2023-01-29T01:32:48.634Z,-0.59
2023-01-29T01:35:15.135Z,-0.63
2023-01-29T01:37:41.616Z,-0.58
2023-01-29T01:40:18.236Z,-0.57
2023-01-29T01:42:51.864Z,-0.61
2023-01-29T01:45:29.908Z,-0.64
2023-01-29T01:48:01.535Z,-0.58
2023-01-29T01:50:44.656Z,-0.59
2023-01-29T01:53:16.894Z,-0.59
2023-01-29T01:55:49.485Z,-0.52
2023-01-29T01:58:27.666Z,-0.52
2023-01-29T02:00:54.121Z,-0.55
2023-01-29T02:03:39.159Z,-0.56
2023-01-29T02:06:24.149Z,-0.52
2023-01-29T02:09:24.501Z,-0.47
2023-01-29T02:11:51.436Z,-0.42
2023-01-29T02:14:17.800Z,-0.38
2023-01-29T02:16:44.139Z,-0.33
2023-01-29T02:19:34.009Z,-0.36
2023-01-29T02:22:29.158Z,-0.37
2023-01-29T02:25:33.522Z,-0.33
2023-01-29T02:28:36.854Z,-0.39
2023-01-29T02:31:09.402Z,-0.37
2023-01-29T02:33:48.396Z,-0.40
2023-01-29T02:36:27.205Z,-0.41
2023-01-29T02:39:12.262Z,-0.42
2023-01-29T02:41:54.677Z,-0.40
2023-01-29T02:44:24.699Z,-0.42
2023-01-29T02:46:57.503Z,-0.36
2023-01-29T02:49:34.543Z,-0.37
2023-01-29T02:52:16.751Z,-0.34
2023-01-29T02:55:02.821Z,-0.35
2023-01-29T02:57:31.981Z,-0.32
2023-01-29T03:00:10.396Z,-0.25
2023-01-29T03:02:42.220Z,-0.24
2023-01-29T03:05:12.730Z,-0.29
2023-01-29T03:07:42.692Z,-0.24
2023-01-29T03:10:14.135Z,-0.22
2023-01-29T03:12:40.670Z,-0.23
2023-01-29T03:15:12.002Z,-0.23
2023-01-29T03:17:59.987Z,-0.22
2023-01-29T03:20:32.644Z,-0.19
2023-01-29T03:23:03.925Z,-0.15
2023-01-29T03:25:48.770Z,-0.16
2023-01-29T03:28:35.386Z,-0.16
2023-01-29T03:31:28.256Z,-0.16
2023-01-29T03:34:04.429Z,-0.16
2023-01-29T03:36:45.575Z,-0.22
2023-01-29T03:39:12.359Z,-0.26
2023-01-29T03:41:42.397Z,-0.25
2023-01-29T03:44:18.438Z,-0.24
2023-01-29T03:46:56.828Z,-0.22
2023-01-29T03:49:33.169Z,-0.23
2023-01-29T03:52:38.211Z,-0.26
2023-01-29T03:55:13.168Z,-0.28
2023-01-29T03:57:46.636Z,-0.28
2023-01-29T04:00:17.607Z,-0.24
2023-01-29T04:02:48.517Z,-0.26
2023-01-29T04:05:19.154Z,-0.32
2023-01-29T04:07:45.537Z,-0.37
2023-01-29T04:10:17.271Z,-0.39
2023-01-29T04:13:04.921Z,-0.43
2023-01-29T04:15:33.825Z,-0.45
2023-01-29T04:18:00.169Z,-0.44
2023-01-29T04:20:26.554Z,-0.47
2023-01-29T04:22:53.109Z,-0.49
2023-01-29T04:25:26.491Z,-0.51
2023-01-29T04:28:08.807Z,-0.53
2023-01-29T04:31:00.505Z,-0.49
2023-01-29T04:33:38.406Z,-0.51
2023-01-29T04:36:16.721Z,-0.50
2023-01-29T04:38:47.927Z,-0.52
2023-01-29T04:41:40.498Z,-0.46
2023-01-29T04:44:16.667Z,-0.48
2023-01-29T04:46:58.673Z,-0.51
2023-01-29T04:49:45.197Z,-0.49
2023-01-29T04:52:21.924Z,-0.52
2023-01-29T04:55:08.652Z,-0.53
2023-01-29T04:57:47.811Z,-0.56
2023-01-29T05:00:18.913Z,-0.52
2023-01-29T05:02:45.369Z,-0.53
2023-01-29T05:05:12.567Z,-0.53
2023-01-29T05:07:39.357Z,-0.55
2023-01-29T05:10:06.664Z,-0.54
2023-01-29T05:12:33.020Z,-0.56
2023-01-29T05:15:01.296Z,-0.53
2023-01-29T05:17:27.889Z,-0.54
2023-01-29T05:19:55.464Z,-0.52
2023-01-29T05:22:23.149Z,-0.54
2023-01-29T05:24:50.328Z,-0.55
2023-01-29T05:27:40.095Z,-0.50
2023-01-29T05:30:07.219Z,-0.49
2023-01-29T05:32:33.622Z,-0.52
2023-01-29T05:35:00.053Z,-0.51
2023-01-29T05:37:26.408Z,-0.52
2023-01-29T05:39:52.774Z,-0.55
2023-01-29T05:42:19.391Z,-0.56
2023-01-29T05:44:45.813Z,-0.59
2023-01-29T05:47:12.179Z,-0.63
2023-01-29T05:49:38.934Z,-0.66
2023-01-29T05:52:05.419Z,-0.65
2023-01-29T05:54:31.793Z,-0.63
2023-01-29T05:56:58.181Z,-0.66
2023-01-29T05:59:24.579Z,-0.62
2023-01-29T06:01:50.981Z,-0.57
2023-01-29T06:04:17.430Z,-0.54
2023-01-29T06:06:43.784Z,-0.48
2023-01-29T06:09:11.004Z,-0.51
2023-01-29T06:11:37.670Z,-0.46
2023-01-29T06:14:04.031Z,-0.44
2023-01-29T06:16:30.474Z,-0.41
2023-01-29T06:18:56.971Z,-0.36
2023-01-29T06:21:23.347Z,-0.34
2023-01-29T06:23:52.501Z,-0.35
2023-01-29T06:26:19.141Z,-0.36
2023-01-29T06:28:50.388Z,-0.35
2023-01-29T06:31:35.236Z,-0.35
2023-01-29T06:34:03.982Z,-0.30
2023-01-29T06:36:30.422Z,-0.29
2023-01-29T06:38:56.778Z,-0.26
2023-01-29T06:41:25.793Z,-0.26
2023-01-29T06:43:52.307Z,-0.27
2023-01-29T06:46:18.655Z,-0.24
2023-01-29T06:48:45.201Z,-0.22
2023-01-29T06:51:11.627Z,-0.19
2023-01-29T06:53:38.567Z,-0.20
2023-01-29T06:56:05.830Z,-0.16
2023-01-29T06:58:32.183Z,-0.19
2023-01-29T07:01:08.955Z,-0.15
2023-01-29T07:03:35.434Z,-0.19
2023-01-29T07:06:01.909Z,-0.14
2023-01-29T07:08:28.678Z,-0.14
2023-01-29T07:11:01.121Z,-0.11
2023-01-29T07:13:27.571Z,-0.08
2023-01-29T07:15:54.154Z,-0.08
2023-01-29T07:18:20.501Z,-0.10
2023-01-29T07:20:46.826Z,-0.06
2023-01-29T07:23:13.502Z,-0.10
2023-01-29T07:25:40.439Z,-0.05
2023-01-29T07:28:07.061Z,-0.04
2023-01-29T07:30:33.697Z,-0.03
2023-01-29T07:33:08.072Z,-0.05
2023-01-29T07:35:42.418Z,-0.05
2023-01-29T07:38:09.445Z,-0.03
2023-01-29T07:40:35.934Z,-0.02
2023-01-29T07:43:03.940Z,0.00
2023-01-29T07:45:30.637Z,0.01
2023-01-29T07:47:57.169Z,-0.01
2023-01-29T07:50:23.982Z,0.03
2023-01-29T07:52:50.408Z,0.04
2023-01-29T07:55:17.069Z,0.05
2023-01-29T07:57:44.175Z,0.08
2023-01-29T08:00:11.675Z,0.07
2023-01-29T08:02:38.053Z,0.12
2023-01-29T08:05:04.991Z,0.14
2023-01-29T08:07:31.349Z,0.15
2023-01-29T08:09:57.704Z,0.18
2023-01-29T08:12:24.091Z,0.17
2023-01-29T08:14:50.454Z,0.14
2023-01-29T08:17:16.826Z,0.17
2023-01-29T08:19:43.400Z,0.17
2023-01-29T08:22:09.892Z,0.20
2023-01-29T08:24:47.905Z,0.21
2023-01-29T08:27:20.704Z,0.13
2023-01-29T08:29:47.155Z,0.18
2023-01-29T08:32:13.482Z,0.15
2023-01-29T08:34:39.930Z,0.17
2023-01-29T08:37:06.281Z,0.12
2023-01-29T08:39:33.744Z,0.15
2023-01-29T08:42:01.004Z,0.14
2023-01-29T08:44:27.424Z,0.15
2023-01-29T08:46:53.763Z,0.19
2023-01-29T08:49:20.323Z,0.12
2023-01-29T08:51:46.669Z,0.14
2023-01-29T08:54:13.035Z,0.16
2023-01-29T08:56:39.400Z,0.17
2023-01-29T08:59:05.750Z,0.16
2023-01-29T09:01:32.193Z,0.23
2023-01-29T09:03:58.791Z,0.26
2023-01-29T09:06:25.227Z,0.28
2023-01-29T09:08:51.568Z,0.24
2023-01-29T09:11:18.047Z,0.26
2023-01-29T09:13:44.509Z,0.28
2023-01-29T09:16:10.938Z,0.27
2023-01-29T09:18:37.343Z,0.28
2023-01-29T09:21:04.427Z,0.18
2023-01-29T09:23:30.911Z,0.26
2023-01-29T09:25:57.358Z,0.33
2023-01-29T09:28:23.823Z,0.37
2023-01-29T09:30:50.282Z,0.38
2023-01-29T09:33:16.962Z,0.42
2023-01-29T09:35:43.505Z,0.47
2023-01-29T09:38:10.333Z,0.52
2023-01-29T09:40:50.682Z,0.55
2023-01-29T09:43:19.333Z,0.53
2023-01-29T09:45:52.625Z,0.58
2023-01-29T09:48:19.002Z,0.55
2023-01-29T09:50:47.300Z,0.58
2023-01-29T09:53:13.795Z,0.50
2023-01-29T09:55:49.686Z,0.59
2023-01-29T09:58:20.899Z,0.58
2023-01-29T10:01:06.202Z,0.65
2023-01-29T10:03:41.987Z,0.61
2023-01-29T10:06:39.855Z,0.68
2023-01-29T10:09:34.416Z,0.73
2023-01-29T10:12:19.645Z,0.77
2023-01-29T10:14:58.470Z,0.79
2023-01-29T10:17:58.892Z,0.81
2023-01-29T10:20:37.704Z,0.84
2023-01-29T10:23:04.083Z,0.88
2023-01-29T10:25:30.437Z,0.91
2023-01-29T10:27:58.160Z,0.90
2023-01-29T10:30:40.637Z,0.89
2023-01-29T10:33:12.386Z,0.94
2023-01-29T10:35:43.764Z,0.95
2023-01-29T10:38:24.519Z,1.02
2023-01-29T10:41:11.689Z,1.05
2023-01-29T10:43:54.943Z,1.04
2023-01-29T10:46:27.202Z,1.03
2023-01-29T10:48:56.641Z,1.08
2023-01-29T10:52:04.596Z,1.11
2023-01-29T10:55:23.760Z,1.15
2023-01-29T10:58:36.721Z,1.11
2023-01-29T11:01:03.260Z,1.12
2023-01-29T11:03:33.411Z,1.18
2023-01-29T11:05:59.774Z,1.22
2023-01-29T11:08:29.135Z,1.24
2023-01-29T11:11:13.737Z,1.27
2023-01-29T11:13:42.879Z,1.26
2023-01-29T11:16:09.907Z,1.25
2023-01-29T11:18:56.317Z,1.30
2023-01-29T11:21:24.355Z,1.38
2023-01-29T11:23:51.619Z,1.37
2023-01-29T11:26:22.370Z,1.39
2023-01-29T11:28:49.880Z,1.40
2023-01-29T11:31:21.300Z,1.48
2023-01-29T11:33:47.924Z,1.51
2023-01-29T11:36:37.997Z,1.49
2023-01-29T11:39:23.815Z,1.58
2023-01-29T11:41:52.836Z,1.57
2023-01-29T11:44:20.567Z,1.58
2023-01-29T11:46:47.109Z,1.56
2023-01-29T11:49:31.356Z,1.58
2023-01-29T11:51:58.768Z,1.64
2023-01-29T11:54:27.474Z,1.63
2023-01-29T11:56:54.361Z,1.67
2023-01-29T11:59:44.195Z,1.67
2023-01-29T12:02:16.520Z,1.71
2023-01-29T12:04:42.856Z,1.72
2023-01-29T12:07:14.861Z,1.67
2023-01-29T12:09:41.642Z,1.75
2023-01-29T12:12:27.561Z,1.75
2023-01-29T12:15:06.473Z,1.80
2023-01-29T12:17:34.288Z,1.81
2023-01-29T12:20:04.656Z,1.78
2023-01-29T12:22:49.401Z,1.81
2023-01-29T12:25:37.458Z,1.79
2023-01-29T12:28:16.041Z,1.84
2023-01-29T12:31:23.427Z,1.87
2023-01-29T12:34:06.187Z,1.86
2023-01-29T12:36:41.025Z,1.89
2023-01-29T12:39:11.023Z,1.90
2023-01-29T12:41:46.060Z,1.91
2023-01-29T12:44:14.655Z,1.91
2023-01-29T12:46:43.682Z,1.91
2023-01-29T12:49:13.839Z,1.92
2023-01-29T12:51:46.380Z,1.95
2023-01-29T12:54:14.909Z,1.94
2023-01-29T12:56:48.978Z,1.99
2023-01-29T12:59:17.627Z,1.97
2023-01-29T13:01:50.699Z,2.00
2023-01-29T13:04:40.684Z,2.00
2023-01-29T13:07:13.570Z,2.01
2023-01-29T13:09:42.280Z,2.05
2023-01-29T13:12:16.929Z,2.05
2023-01-29T13:15:17.587Z,2.05
2023-01-29T13:17:46.246Z,2.06
2023-01-29T13:20:23.598Z,2.06
2023-01-29T13:22:50.506Z,2.08
2023-01-29T13:25:17.974Z,2.13
2023-01-29T13:27:45.787Z,2.10
2023-01-29T13:30:33.415Z,2.10
2023-01-29T13:33:11.118Z,2.13
2023-01-29T13:35:42.391Z,2.11
2023-01-29T13:38:38.092Z,2.14
2023-01-29T13:41:05.412Z,2.17
2023-01-29T13:43:36.676Z,2.20
2023-01-29T13:46:11.387Z,2.17
2023-01-29T13:48:46.612Z,2.20
2023-01-29T13:51:16.977Z,2.22
2023-01-29T13:53:43.525Z,2.19
2023-01-29T13:56:34.375Z,2.23
2023-01-29T13:59:01.902Z,2.21
2023-01-29T14:01:46.971Z,2.24
2023-01-29T14:04:19.340Z,2.25
2023-01-29T14:06:50.792Z,2.25
2023-01-29T14:09:33.830Z,2.26
2023-01-29T14:12:00.462Z,2.32
2023-01-29T14:14:59.135Z,2.29
2023-01-29T14:17:25.884Z,2.31
2023-01-29T14:19:53.611Z,2.31
2023-01-29T14:22:22.063Z,2.28
2023-01-29T14:24:48.922Z,2.31
2023-01-29T14:27:22.762Z,2.31
2023-01-29T14:29:51.858Z,2.30
2023-01-29T14:32:19.815Z,2.32
2023-01-29T14:34:50.423Z,2.33
2023-01-29T14:37:17.136Z,2.34
2023-01-29T14:39:51.000Z,2.34
2023-01-29T14:42:33.078Z,2.33
2023-01-29T14:45:30.899Z,2.30
2023-01-29T14:48:01.246Z,2.35
2023-01-29T14:50:31.830Z,2.35
2023-01-29T14:53:10.438Z,2.32
2023-01-29T14:55:44.649Z,2.32
2023-01-29T14:58:20.336Z,2.31
2023-01-29T15:00:50.597Z,2.28
2023-01-29T15:03:32.309Z,2.25
2023-01-29T15:05:59.410Z,2.24
2023-01-29T15:08:40.851Z,2.23
2023-01-29T15:11:27.802Z,2.19
2023-01-29T15:13:55.999Z,2.18
2023-01-29T15:16:27.863Z,2.21
2023-01-29T15:18:56.441Z,2.15
2023-01-29T15:21:22.793Z,2.19
2023-01-29T15:23:49.129Z,2.17
2023-01-29T15:26:19.882Z,2.15
2023-01-29T15:29:02.192Z,2.14
2023-01-29T15:31:30.381Z,2.09
2023-01-29T15:33:56.889Z,2.10
2023-01-29T15:36:30.046Z,2.09
2023-01-29T15:39:11.926Z,2.10
2023-01-29T15:41:38.366Z,2.10
2023-01-29T15:44:12.761Z,2.08
2023-01-29T15:46:39.673Z,2.04
2023-01-29T15:49:07.675Z,2.03
2023-01-29T15:51:34.138Z,2.03
2023-01-29T15:54:04.433Z,1.98
2023-01-29T15:56:51.451Z,1.94
2023-01-29T15:59:22.502Z,1.87
2023-01-29T16:01:48.953Z,1.86
2023-01-29T16:04:19.243Z,1.84
2023-01-29T16:06:45.593Z,1.80
2023-01-29T16:09:16.891Z,1.73
2023-01-29T16:11:43.481Z,1.68
2023-01-29T16:14:12.531Z,1.64
2023-01-29T16:16:38.885Z,1.63
2023-01-29T16:19:20.350Z,1.62
2023-01-29T16:21:46.970Z,1.62
2023-01-29T16:24:15.745Z,1.59
2023-01-29T16:26:46.689Z,1.60
2023-01-29T16:29:21.715Z,1.58
2023-01-29T16:31:48.777Z,1.61
2023-01-29T16:34:25.989Z,1.61
2023-01-29T16:36:53.539Z,1.59
2023-01-29T16:39:47.623Z,1.58
2023-01-29T16:42:17.435Z,1.56
2023-01-29T16:44:57.369Z,1.54
2023-01-29T16:47:28.364Z,1.50
2023-01-29T16:49:56.875Z,1.48
2023-01-29T16:52:33.831Z,1.49
2023-01-29T16:55:02.166Z,1.51
2023-01-29T16:57:31.889Z,1.50
2023-01-29T17:00:00.589Z,1.54
2023-01-29T17:02:28.609Z,1.56
2023-01-29T17:04:57.684Z,1.56
2023-01-29T17:07:24.272Z,1.59
2023-01-29T17:09:53.551Z,1.60
2023-01-29T17:12:21.803Z,1.63
2023-01-29T17:14:58.505Z,1.66
2023-01-29T17:17:32.722Z,1.70
2023-01-29T17:20:03.714Z,1.69
2023-01-29T17:22:30.071Z,1.73
2023-01-29T17:24:56.410Z,1.75
2023-01-29T17:27:22.917Z,1.77
2023-01-29T17:29:49.440Z,1.78
2023-01-29T17:32:17.891Z,1.80
2023-01-29T17:34:46.367Z,1.80
2023-01-29T17:37:14.180Z,1.82
2023-01-29T17:39:41.198Z,1.84
2023-01-29T17:42:10.891Z,1.85
2023-01-29T17:44:37.218Z,1.83
2023-01-29T17:47:05.351Z,1.85
2023-01-29T17:49:35.707Z,1.85
2023-01-29T17:52:02.052Z,1.85
2023-01-29T17:54:28.413Z,1.86
2023-01-29T17:56:55.069Z,1.85
2023-01-29T17:59:26.269Z,1.85
2023-01-29T18:01:53.158Z,1.85
2023-01-29T18:04:19.838Z,1.82
2023-01-29T18:06:47.779Z,1.86
2023-01-29T18:09:15.080Z,1.83
2023-01-29T18:11:42.136Z,1.85
2023-01-29T18:14:14.156Z,1.86
2023-01-29T18:16:41.857Z,1.84
2023-01-29T18:19:22.270Z,1.84
2023-01-29T18:21:49.281Z,1.85
2023-01-29T18:24:15.787Z,1.84
2023-01-29T18:26:42.675Z,1.85
2023-01-29T18:29:09.085Z,1.82
2023-01-29T18:31:35.507Z,1.83
2023-01-29T18:34:01.986Z,1.85
2023-01-29T18:36:28.382Z,1.82
2023-01-29T18:38:55.753Z,1.83
2023-01-29T18:41:22.328Z,1.86
2023-01-29T18:43:48.860Z,1.88
2023-01-29T18:46:15.323Z,1.89
2023-01-29T18:48:42.939Z,1.90
2023-01-29T18:51:09.510Z,1.89
2023-01-29T18:53:35.889Z,1.90
2023-01-29T18:56:04.592Z,1.88
2023-01-29T18:58:36.164Z,1.86
2023-01-29T19:01:09.834Z,1.85
2023-01-29T19:03:36.567Z,1.83
2023-01-29T19:06:04.046Z,1.83
2023-01-29T19:08:30.616Z,1.82
2023-01-29T19:10:57.768Z,1.86
2023-01-29T19:13:24.557Z,1.84
2023-01-29T19:15:50.991Z,1.85
2023-01-29T19:18:17.423Z,1.84
2023-01-29T19:20:43.830Z,1.86
2023-01-29T19:23:10.426Z,1.88
2023-01-29T19:25:39.968Z,1.88
2023-01-29T19:28:06.543Z,1.88
2023-01-29T19:30:33.065Z,1.86
2023-01-29T19:32:59.510Z,1.85
2023-01-29T19:35:27.215Z,1.82
2023-01-29T19:37:53.666Z,1.75
2023-01-29T19:40:20.922Z,1.75
2023-01-29T19:42:47.890Z,1.70
2023-01-29T19:45:14.993Z,1.72
2023-01-29T19:47:42.237Z,1.74
2023-01-29T19:50:10.091Z,1.69
2023-01-29T19:52:52.268Z,1.70
2023-01-29T19:55:20.070Z,1.66
2023-01-29T19:57:46.806Z,1.67
2023-01-29T20:00:14.760Z,1.66
2023-01-29T20:02:41.236Z,1.67
2023-01-29T20:05:09.923Z,1.65
2023-01-29T20:07:36.472Z,1.62
2023-01-29T20:10:03.901Z,1.60
2023-01-29T20:12:30.421Z,1.58
2023-01-29T20:14:56.815Z,1.57
2023-01-29T20:17:23.176Z,1.59
2023-01-29T20:19:49.547Z,1.61
2023-01-29T20:22:15.925Z,1.59
2023-01-29T20:24:42.632Z,1.59
2023-01-29T20:27:10.191Z,1.57
2023-01-29T20:29:39.996Z,1.58
2023-01-29T20:32:07.833Z,1.59
2023-01-29T20:34:34.938Z,1.56
2023-01-29T20:37:01.366Z,1.57
2023-01-29T20:39:27.740Z,1.56
2023-01-29T20:41:55.091Z,1.57
2023-01-29T20:44:21.437Z,1.59
2023-01-29T20:46:47.793Z,1.54
2023-01-29T20:49:14.323Z,1.52
2023-01-29T20:51:40.671Z,1.53
2023-01-29T20:54:08.000Z,1.57
2023-01-29T20:56:37.097Z,1.60
2023-01-29T20:59:08.975Z,1.58
2023-01-29T21:01:35.443Z,1.60
2023-01-29T21:04:01.886Z,1.52
2023-01-29T21:06:29.454Z,1.53
2023-01-29T21:08:55.979Z,1.52
2023-01-29T21:11:22.311Z,1.48
2023-01-29T21:13:48.673Z,1.44
2023-01-29T21:16:15.275Z,1.44
2023-01-29T21:18:41.663Z,1.42
2023-01-29T21:21:08.034Z,1.45
2023-01-29T21:23:34.421Z,1.44
2023-01-29T21:26:04.621Z,1.46
2023-01-29T21:28:31.146Z,1.45
2023-01-29T21:31:10.892Z,1.40
2023-01-29T21:33:37.435Z,1.43
2023-01-29T21:36:04.093Z,1.43
2023-01-29T21:38:30.738Z,1.45
2023-01-29T21:41:01.146Z,1.45
2023-01-29T21:43:27.751Z,1.47
2023-01-29T21:45:58.199Z,1.49
2023-01-29T21:48:24.939Z,1.48
2023-01-29T21:50:52.060Z,1.47
2023-01-29T21:53:18.896Z,1.47
2023-01-29T21:55:45.825Z,1.47
2023-01-29T21:58:14.281Z,1.51
2023-01-29T22:00:40.963Z,1.52
2023-01-29T22:03:07.324Z,1.50
2023-01-29T22:05:34.065Z,1.52
2023-01-29T22:08:00.486Z,1.52
2023-01-29T22:10:27.586Z,1.57
2023-01-29T22:12:54.161Z,1.55
2023-01-29T22:15:22.590Z,1.55
2023-01-29T22:17:50.002Z,1.57
2023-01-29T22:20:16.807Z,1.60
2023-01-29T22:22:43.453Z,1.66
2023-01-29T22:25:10.027Z,1.70
2023-01-29T22:27:36.515Z,1.73
2023-01-29T22:30:04.049Z,1.77
2023-01-29T22:32:31.856Z,1.81
2023-01-29T22:34:58.276Z,1.82
2023-01-29T22:37:24.805Z,1.87
2023-01-29T22:39:51.167Z,1.89
2023-01-29T22:42:19.366Z,1.94
2023-01-29T22:44:45.787Z,2.00
2023-01-29T22:47:12.262Z,2.05
2023-01-29T22:49:38.803Z,2.11
2023-01-29T22:52:11.080Z,2.16
2023-01-29T22:54:42.040Z,2.23
2023-01-29T22:57:10.129Z,2.28
2023-01-29T22:59:36.723Z,2.30
2023-01-29T23:02:03.112Z,2.34
2023-01-29T23:04:29.558Z,2.37
2023-01-29T23:06:55.987Z,2.38
2023-01-29T23:09:22.449Z,2.40
2023-01-29T23:11:48.827Z,2.42
2023-01-29T23:14:15.390Z,2.45
2023-01-29T23:16:41.739Z,2.47
2023-01-29T23:19:08.109Z,2.48
2023-01-29T23:21:34.758Z,2.49
2023-01-29T23:24:01.318Z,2.49
2023-01-29T23:26:46.928Z,2.48
2023-01-29T23:29:13.435Z,2.48
2023-01-29T23:31:39.841Z,2.47
2023-01-29T23:34:06.235Z,2.49
2023-01-29T23:36:32.605Z,2.50
2023-01-29T23:38:58.941Z,2.49
2023-01-29T23:41:25.371Z,2.48
2023-01-29T23:43:52.644Z,2.48
2023-01-29T23:46:19.084Z,2.47
2023-01-29T23:48:45.474Z,2.45
2023-01-29T23:51:11.854Z,2.45
2023-01-29T23:53:38.659Z,2.45
2023-01-29T23:56:05.463Z,2.47
2023-01-29T23:58:32.411Z,2.47
